CO48 weather

Crop Air Inc Airport
Eaton, Colorado, United States

Public forecast

Using degrees Fahrenheit for public forecast. Weather courtesy of forecast.io.

METAR (pilot weather report)

Closest report is Greeley–Weld County Airport, 4.6 nm (8.5 km) S. Retrieved 2019/09/16 07:56 UTC (15 minutes ago):

KGXY 160756Z AUTO 32004KT 10SM CLR 13/09 A2999 RMK AO2 SLP116 T01280089

TAF (pilot weather forecast)

Closest forecast is Denver International Airport, 39.1 nm (72.4 km) S. Retrieved 2019/09/16 06:22 UTC (2 hours ago):

TAF KDEN 160520Z 1606/1712 20010KT P6SM BKN180 FM161400 25007KT P6SM BKN160 FM161600 02006KT P6SM SCT100 BKN140 FM170200 20008KT P6SM SCT100 BKN140